Time;durP1;ratioP1;P1;durP2;ratioP2;P2;SDS_P1;SDS_P2;PMS_P1;PMS_P2;Temp;Humidity;BMP_temperature;BMP_pressure;BME280_temperature;BME280_humidity;BME280_pressure;Samples;Min_cycle;Max_cycle;Signal;HPM_P1;HPM_P2
2022/09/19 00:01:13;;;;;;;1999.90;999.90;;;10.20;99.90;;;;;;5050707;28;20520;-73
2022/09/19 00:03:41;;;;;;;1999.90;999.90;;;10.20;99.90;;;;;;5057463;28;20532;-73
2022/09/19 00:06:10;;;;;;;1999.90;999.90;;;10.40;99.90;;;;;;5048229;28;20907;-74
2022/09/19 00:08:39;;;;;;;1999.90;999.90;;;10.20;99.90;;;;;;5051235;28;20508;-73
2022/09/19 00:11:07;;;;;;;1999.90;999.90;;;10.20;99.90;;;;;;5044039;28;20601;-72
2022/09/19 00:13:35;;;;;;;1999.90;999.90;;;10.20;99.90;;;;;;5050607;28;20485;-71
2022/09/19 00:16:03;;;;;;;1999.90;999.90;;;10.10;99.90;;;;;;5047903;28;20481;-73
2022/09/19 00:18:30;;;;;;;1999.90;999.90;;;10.20;99.90;;;;;;5055651;28;20551;-72
2022/09/19 00:20:56;;;;;;;1999.90;999.90;;;10.30;99.90;;;;;;5049121;28;20486;-71
2022/09/19 00:26:11;;;;;;;1999.90;999.90;;;10.30;99.90;;;;;;5047777;28;20543;-74
2022/09/19 00:28:38;;;;;;;1999.90;999.90;;;10.30;99.90;;;;;;5047817;28;20462;-74
2022/09/19 00:31:06;;;;;;;1999.90;999.90;;;10.30;99.90;;;;;;5046917;28;20491;-72
2022/09/19 00:33:34;;;;;;;1999.90;999.90;;;10.30;99.90;;;;;;5048379;28;20482;-72
2022/09/19 00:36:03;;;;;;;1999.90;999.90;;;10.20;99.90;;;;;;5047679;28;20505;-69
2022/09/19 00:38:32;;;;;;;1999.90;999.90;;;10.20;99.90;;;;;;5047986;28;20830;-74
2022/09/19 00:40:58;;;;;;;1999.90;999.90;;;10.10;99.90;;;;;;5049929;28;20482;-72
2022/09/19 00:43:45;;;;;;;1999.90;999.90;;;10.10;99.90;;;;;;5060889;28;20518;-72
2022/09/19 00:46:11;;;;;;;1999.90;999.90;;;10.10;99.90;;;;;;5056834;28;20454;-73
2022/09/19 00:48:41;;;;;;;1999.90;999.90;;;10.10;99.90;;;;;;5051744;28;21172;-73
2022/09/19 00:51:11;;;;;;;1999.90;999.90;;;10.10;99.90;;;;;;5049312;28;20459;-73
2022/09/19 00:53:38;;;;;;;1999.90;999.90;;;10.10;99.90;;;;;;5052796;28;20482;-71
2022/09/19 00:56:05;;;;;;;1999.90;999.90;;;10.10;99.90;;;;;;5051873;28;20470;-70
2022/09/19 00:58:37;;;;;;;1999.90;999.90;;;10.10;99.90;;;;;;5055588;28;20902;-72
2022/09/19 01:01:04;;;;;;;1999.90;999.90;;;10.10;99.90;;;;;;5051502;28;20486;-73
2022/09/19 01:03:32;;;;;;;1999.90;999.90;;;10.10;99.90;;;;;;5049833;28;20904;-72
2022/09/19 01:06:11;;;;;;;1999.90;999.90;;;10.10;99.90;;;;;;5049668;28;20469;-72
2022/09/19 01:08:50;;;;;;;1999.90;999.90;;;10.10;99.90;;;;;;5051984;28;20488;-73
2022/09/19 01:11:37;;;;;;;1999.90;999.90;;;10.00;99.90;;;;;;5054584;28;20462;-73
2022/09/19 01:14:14;;;;;;;1999.90;999.90;;;10.10;99.90;;;;;;5052104;28;20482;-72
2022/09/19 01:16:42;;;;;;;1999.90;999.90;;;10.00;99.90;;;;;;5057054;28;20481;-72
2022/09/19 01:19:28;;;;;;;1999.90;999.90;;;10.10;99.90;;;;;;5053959;28;20462;-72
2022/09/19 01:22:02;;;;;;;1999.90;999.90;;;10.10;99.90;;;;;;5048348;28;20533;-68
2022/09/19 01:24:58;;;;;;;1999.90;999.90;;;10.10;99.90;;;;;;5049313;28;20855;-72
2022/09/19 01:28:06;;;;;;;1999.90;999.90;;;10.10;99.90;;;;;;5054500;28;20599;-70
2022/09/19 01:30:35;;;;;;;1999.90;999.90;;;10.10;99.90;;;;;;5045907;28;20524;-70
2022/09/19 01:33:06;;;;;;;1999.90;999.90;;;10.10;99.90;;;;;;5045666;28;20532;-71
2022/09/19 01:35:37;;;;;;;1999.90;999.90;;;10.20;99.90;;;;;;5054720;28;20458;-72
2022/09/19 01:38:08;;;;;;;1999.90;999.90;;;10.10;99.90;;;;;;5048805;28;20466;-71
2022/09/19 01:40:36;;;;;;;1999.90;999.90;;;10.20;99.90;;;;;;5045734;28;20515;-74
2022/09/19 01:43:06;;;;;;;1999.90;999.90;;;10.20;99.90;;;;;;5047493;28;20523;-72
2022/09/19 01:45:36;;;;;;;1999.90;999.90;;;10.20;99.90;;;;;;5049264;28;20469;-70
2022/09/19 01:48:10;;;;;;;1999.90;999.90;;;10.20;99.90;;;;;;5045946;28;20554;-73
2022/09/19 01:50:53;;;;;;;1999.90;999.90;;;10.20;99.90;;;;;;5050465;28;20957;-73
2022/09/19 01:53:31;;;;;;;1999.90;999.90;;;10.20;99.90;;;;;;5055251;28;21049;-73
2022/09/19 01:56:06;;;;;;;1999.90;999.90;;;10.30;99.90;;;;;;5054763;28;20505;-73
2022/09/19 01:58:41;;;;;;;1999.90;999.90;;;10.30;99.90;;;;;;5051041;28;20830;-73
2022/09/19 02:01:16;;;;;;;1999.90;999.90;;;10.30;99.90;;;;;;5051861;28;20474;-72
2022/09/19 02:03:49;;;;;;;1999.90;999.90;;;10.30;99.90;;;;;;5052186;28;20554;-74
2022/09/19 02:06:24;;;;;;;1999.90;999.90;;;10.30;99.90;;;;;;5042396;28;20462;-73
2022/09/19 02:08:59;;;;;;;1999.90;999.90;;;10.30;99.90;;;;;;5046871;28;20474;-71
2022/09/19 02:11:27;;;;;;;1999.90;999.90;;;10.30;99.90;;;;;;5046360;28;20462;-73
2022/09/19 02:13:59;;;;;;;1999.90;999.90;;;10.30;99.90;;;;;;5048184;28;20568;-73
2022/09/19 02:16:32;;;;;;;1999.90;999.90;;;10.30;99.90;;;;;;5043705;28;20513;-73
2022/09/19 02:19:00;;;;;;;1999.90;999.90;;;10.30;99.90;;;;;;5042977;28;20859;-72
2022/09/19 02:21:36;;;;;;;1999.90;999.90;;;10.30;99.90;;;;;;5041223;28;20530;-72
2022/09/19 02:24:06;;;;;;;1999.90;999.90;;;10.30;99.90;;;;;;5041990;28;20521;-73
2022/09/19 02:26:35;;;;;;;1999.90;999.90;;;10.30;99.90;;;;;;5039594;28;20471;-73
2022/09/19 02:29:06;;;;;;;1999.90;999.90;;;10.30;99.90;;;;;;5039778;28;20489;-72
2022/09/19 02:31:32;;;;;;;1999.90;999.90;;;10.40;99.90;;;;;;5042665;28;20482;-74
2022/09/19 02:34:04;;;;;;;1999.90;999.90;;;10.30;99.90;;;;;;5039520;28;20482;-72
2022/09/19 02:36:39;;;;;;;1999.90;999.90;;;10.40;99.90;;;;;;5041988;28;20906;-73
2022/09/19 02:39:14;;;;;;;1999.90;999.90;;;10.40;99.90;;;;;;5044142;28;20455;-75
2022/09/19 02:41:51;;;;;;;1999.90;999.90;;;10.40;99.90;;;;;;5036908;28;20478;-72
2022/09/19 02:44:24;;;;;;;1999.90;999.90;;;10.50;99.90;;;;;;5037101;28;20544;-73
2022/09/19 02:47:00;;;;;;;1999.90;999.90;;;10.40;99.90;;;;;;5041461;28;20880;-70
2022/09/19 02:49:38;;;;;;;1999.90;999.90;;;10.40;99.90;;;;;;5048219;28;20800;-74
2022/09/19 02:52:11;;;;;;;1999.90;999.90;;;10.40;99.90;;;;;;5051029;28;20458;-74
2022/09/19 02:54:41;;;;;;;1999.90;999.90;;;10.40;99.90;;;;;;5041206;28;20560;-73
2022/09/19 02:57:13;;;;;;;1999.90;999.90;;;10.40;99.90;;;;;;5042249;28;20463;-74
2022/09/19 02:59:45;;;;;;;1999.90;999.90;;;10.40;99.90;;;;;;5044175;28;20486;-73
2022/09/19 03:02:19;;;;;;;1999.90;999.90;;;10.40;99.90;;;;;;5043538;28;20490;-72
2022/09/19 03:04:49;;;;;;;1999.90;999.90;;;10.40;99.90;;;;;;5038676;28;20491;-73
2022/09/19 03:07:19;;;;;;;1999.90;999.90;;;10.40;99.90;;;;;;5046518;28;20462;-74
2022/09/19 03:09:51;;;;;;;1999.90;999.90;;;10.30;99.90;;;;;;5043642;28;20458;-73
2022/09/19 03:12:25;;;;;;;1999.90;999.90;;;10.30;99.90;;;;;;5042601;28;20455;-74
2022/09/19 03:14:56;;;;;;;1999.90;999.90;;;10.40;99.90;;;;;;5042130;28;20465;-72
2022/09/19 03:17:27;;;;;;;1999.90;999.90;;;10.30;99.90;;;;;;5047376;28;20474;-73
2022/09/19 03:19:54;;;;;;;1999.90;999.90;;;10.30;99.90;;;;;;5035743;28;20839;-71
2022/09/19 03:22:22;;;;;;;1999.90;999.90;;;10.30;99.90;;;;;;5042523;28;20500;-73
2022/09/19 03:24:49;;;;;;;1999.90;999.90;;;10.40;99.90;;;;;;5039977;28;20470;-73
2022/09/19 03:27:15;;;;;;;1999.90;999.90;;;10.40;99.90;;;;;;5038439;28;20523;-73
2022/09/19 03:29:42;;;;;;;1999.90;999.90;;;10.40;99.90;;;;;;5042406;28;20466;-73
2022/09/19 03:32:11;;;;;;;1999.90;999.90;;;10.40;99.90;;;;;;5046228;28;20475;-73
2022/09/19 03:34:38;;;;;;;1999.90;999.90;;;10.50;99.90;;;;;;5043155;28;20475;-73
2022/09/19 03:37:04;;;;;;;1999.90;999.90;;;10.40;99.90;;;;;;5042405;28;20457;-72
2022/09/19 03:39:31;;;;;;;1999.90;999.90;;;10.40;99.90;;;;;;5045202;28;20462;-71
2022/09/19 03:41:59;;;;;;;1999.90;999.90;;;10.40;99.90;;;;;;5049451;28;20482;-71
2022/09/19 03:44:26;;;;;;;1999.90;999.90;;;10.40;99.90;;;;;;5042261;28;20993;-71
2022/09/19 03:46:53;;;;;;;1999.90;999.90;;;10.30;99.90;;;;;;5036912;28;20467;-70
2022/09/19 03:49:21;;;;;;;1999.90;999.90;;;10.30;99.90;;;;;;5047774;28;20470;-71
2022/09/19 03:51:49;;;;;;;1999.90;999.90;;;10.20;99.90;;;;;;5042952;28;20501;-72
2022/09/19 03:54:16;;;;;;;1999.90;999.90;;;10.20;99.90;;;;;;5040575;28;21512;-72
2022/09/19 03:56:43;;;;;;;1999.90;999.90;;;10.20;99.90;;;;;;5043878;28;20907;-72
2022/09/19 03:59:09;;;;;;;1999.90;999.90;;;10.20;99.90;;;;;;5050805;28;20841;-71
2022/09/19 04:01:36;;;;;;;1999.90;999.90;;;10.20;99.90;;;;;;5048082;28;20490;-72
2022/09/19 04:04:04;;;;;;;1999.90;999.90;;;10.20;99.90;;;;;;5040498;28;20482;-71
2022/09/19 04:06:32;;;;;;;1999.90;999.90;;;10.20;99.90;;;;;;5038537;28;20613;-71
2022/09/19 04:09:00;;;;;;;1999.90;999.90;;;10.20;99.90;;;;;;5042234;28;20459;-71
2022/09/19 04:11:28;;;;;;;1999.90;999.90;;;10.30;99.90;;;;;;5039027;28;20543;-71
2022/09/19 04:13:55;;;;;;;1999.90;999.90;;;10.30;99.90;;;;;;5035497;28;20487;-70
2022/09/19 04:16:24;;;;;;;1999.90;999.90;;;10.30;99.90;;;;;;5041972;28;20516;-71
2022/09/19 04:18:51;;;;;;;1999.90;999.90;;;10.30;99.90;;;;;;5044314;28;20454;-73
2022/09/19 04:21:19;;;;;;;1999.90;999.90;;;10.30;99.90;;;;;;5044282;28;20518;-72
2022/09/19 04:26:18;;;;;;;1999.90;999.90;;;10.40;99.90;;;;;;5060587;28;20488;-71
2022/09/19 04:28:46;;;;;;;1999.90;999.90;;;10.40;99.90;;;;;;5062299;28;20458;-71
2022/09/19 04:31:13;;;;;;;1999.90;999.90;;;10.40;99.90;;;;;;5067410;28;20887;-70
2022/09/19 04:33:40;;;;;;;1999.90;999.90;;;10.40;99.90;;;;;;5068401;28;20530;-71
2022/09/19 04:36:08;;;;;;;1999.90;999.90;;;10.40;99.90;;;;;;5049122;28;20544;-70
2022/09/19 04:38:36;;;;;;;1999.90;999.90;;;10.40;99.90;;;;;;5049214;28;20462;-71
2022/09/19 04:41:04;;;;;;;1999.90;999.90;;;10.40;99.90;;;;;;5048464;28;20462;-71
2022/09/19 04:43:33;;;;;;;1999.90;999.90;;;10.50;99.90;;;;;;5049841;28;20549;-71
2022/09/19 04:46:01;;;;;;;1999.90;999.90;;;10.50;99.90;;;;;;5043447;28;20481;-72
2022/09/19 04:48:27;;;;;;;1999.90;999.90;;;10.50;99.90;;;;;;5050471;28;20465;-71
2022/09/19 04:50:54;;;;;;;1999.90;999.90;;;10.50;99.90;;;;;;5051817;28;20573;-71
2022/09/19 04:53:23;;;;;;;1999.90;999.90;;;10.60;99.90;;;;;;5043238;28;20474;-71
2022/09/19 04:55:51;;;;;;;1999.90;999.90;;;10.60;99.90;;;;;;5048247;28;20561;-71
2022/09/19 04:58:19;;;;;;;1999.90;999.90;;;10.60;99.90;;;;;;5049586;28;20535;-71
2022/09/19 05:00:53;;;;;;;1999.90;999.90;;;10.60;99.90;;;;;;5045567;28;20810;-71
2022/09/19 05:03:20;;;;;;;1999.90;999.90;;;10.60;99.90;;;;;;5047344;28;20607;-71
2022/09/19 05:05:51;;;;;;;1999.90;999.90;;;10.60;99.90;;;;;;5038462;28;20670;-71
2022/09/19 05:08:20;;;;;;;1999.90;999.90;;;10.60;99.90;;;;;;5049629;28;20596;-70
2022/09/19 05:10:47;;;;;;;1999.90;999.90;;;10.60;99.90;;;;;;5048882;28;20473;-71
2022/09/19 05:13:14;;;;;;;1999.90;999.90;;;10.60;99.90;;;;;;5051427;28;20516;-71
2022/09/19 05:15:41;;;;;;;1999.90;999.90;;;10.70;99.90;;;;;;5047192;28;20482;-71
2022/09/19 05:18:10;;;;;;;1999.90;999.90;;;10.70;99.90;;;;;;5050596;28;20469;-71
2022/09/19 05:20:38;;;;;;;1999.90;999.90;;;10.70;99.90;;;;;;5050948;28;20868;-71
2022/09/19 05:23:05;;;;;;;1999.90;999.90;;;10.70;99.90;;;;;;5049879;28;21001;-70
2022/09/19 05:25:37;;;;;;;1999.90;999.90;;;10.70;99.90;;;;;;5045123;28;20840;-73
2022/09/19 05:28:05;;;;;;;1999.90;999.90;;;10.70;99.90;;;;;;5046606;28;21011;-69
2022/09/19 05:30:33;;;;;;;1999.90;999.90;;;10.70;99.90;;;;;;5046259;28;20562;-71
2022/09/19 05:33:00;;;;;;;1999.90;999.90;;;10.70;99.90;;;;;;5048403;28;20866;-72
2022/09/19 05:35:29;;;;;;;1999.90;999.90;;;10.70;99.90;;;;;;5049014;28;20481;-71
2022/09/19 05:37:56;;;;;;;1999.90;999.90;;;10.70;99.90;;;;;;5050915;28;20958;-74
2022/09/19 05:40:23;;;;;;;1999.90;999.90;;;10.70;99.90;;;;;;5047673;28;20462;-70
2022/09/19 05:42:50;;;;;;;1999.90;999.90;;;10.70;99.90;;;;;;5049093;28;20510;-71
2022/09/19 05:45:17;;;;;;;1999.90;999.90;;;10.60;99.90;;;;;;5051622;28;20508;-72
2022/09/19 05:47:44;;;;;;;1999.90;999.90;;;10.70;99.90;;;;;;5052810;28;20584;-72
2022/09/19 05:50:14;;;;;;;1999.90;999.90;;;10.70;99.90;;;;;;5053106;28;20446;-71
2022/09/19 05:55:28;;;;;;;1999.90;999.90;;;10.80;99.90;;;;;;5050508;28;20462;-72
2022/09/19 05:57:57;;;;;;;1999.90;999.90;;;10.80;99.90;;;;;;5054071;28;20524;-72
2022/09/19 06:00:26;;;;;;;1999.90;999.90;;;10.90;99.90;;;;;;5054128;28;20435;-74
2022/09/19 06:02:54;;;;;;;1999.90;999.90;;;11.00;99.90;;;;;;5053373;28;20482;-74
2022/09/19 06:05:21;;;;;;;1999.90;999.90;;;11.10;99.90;;;;;;5053738;28;20470;-74
2022/09/19 06:07:50;;;;;;;1999.90;999.90;;;11.10;99.90;;;;;;5052127;28;20494;-71
2022/09/19 06:10:17;;;;;;;1999.90;999.90;;;11.10;99.90;;;;;;5052225;28;20458;-72
2022/09/19 06:12:44;;;;;;;1999.90;999.90;;;11.20;99.90;;;;;;5048992;28;20977;-72
2022/09/19 06:15:12;;;;;;;1999.90;999.90;;;11.30;99.90;;;;;;5049243;28;20482;-71
2022/09/19 06:17:39;;;;;;;1999.90;999.90;;;11.40;99.90;;;;;;5043979;28;21063;-72
2022/09/19 06:20:06;;;;;;;1999.90;999.90;;;11.60;99.90;;;;;;5043623;28;20887;-72
2022/09/19 06:22:33;;;;;;;1999.90;999.90;;;11.60;99.90;;;;;;5051893;28;20528;-70
2022/09/19 06:25:01;;;;;;;1999.90;999.90;;;11.80;99.90;;;;;;5047377;28;20498;-70
2022/09/19 06:27:28;;;;;;;1999.90;999.90;;;12.00;99.90;;;;;;5051663;28;20555;-68
2022/09/19 06:29:55;;;;;;;1999.90;999.90;;;12.10;99.90;;;;;;5051676;28;20502;-72
2022/09/19 06:32:22;;;;;;;1999.90;999.90;;;12.20;99.90;;;;;;5045567;28;20459;-70
2022/09/19 06:34:49;;;;;;;1999.90;999.90;;;12.00;99.90;;;;;;5043570;28;20487;-68
2022/09/19 06:37:16;;;;;;;1999.90;999.90;;;12.00;99.90;;;;;;5047912;28;20469;-70
2022/09/19 06:39:43;;;;;;;1999.90;999.90;;;11.90;99.90;;;;;;5047740;28;20524;-69
2022/09/19 06:42:11;;;;;;;1999.90;999.90;;;11.90;99.90;;;;;;5046602;28;20483;-72
2022/09/19 06:44:37;;;;;;;1999.90;999.90;;;11.90;99.90;;;;;;5044664;28;20482;-71
2022/09/19 06:47:05;;;;;;;1999.90;999.90;;;11.90;99.90;;;;;;5048190;28;20524;-70
2022/09/19 06:49:31;;;;;;;1999.90;999.90;;;11.90;99.90;;;;;;5053058;28;20440;-71
2022/09/19 06:51:58;;;;;;;1999.90;999.90;;;12.00;99.90;;;;;;5053096;28;20859;-71
2022/09/19 06:54:25;;;;;;;1999.90;999.90;;;12.00;99.90;;;;;;5050621;28;20528;-68
2022/09/19 06:56:51;;;;;;;1999.90;999.90;;;12.10;99.90;;;;;;5051846;28;20469;-70
2022/09/19 06:59:19;;;;;;;1999.90;999.90;;;12.20;99.90;;;;;;5053001;28;20449;-71
2022/09/19 07:01:46;;;;;;;1999.90;999.90;;;12.30;99.90;;;;;;5052863;28;20439;-72
2022/09/19 07:04:13;;;;;;;1999.90;999.90;;;12.40;99.90;;;;;;5052600;28;20520;-70
2022/09/19 07:06:40;;;;;;;1999.90;999.90;;;12.30;99.90;;;;;;5052619;28;20797;-71
2022/09/19 07:09:07;;;;;;;1999.90;999.90;;;12.30;99.90;;;;;;5051004;28;20474;-70
2022/09/19 07:11:35;;;;;;;1999.90;999.90;;;12.40;99.90;;;;;;5052781;28;20537;-70
2022/09/19 07:14:03;;;;;;;1999.90;999.90;;;12.40;99.90;;;;;;5048106;28;20486;-71
2022/09/19 07:16:31;;;;;;;1999.90;999.90;;;12.50;99.90;;;;;;5049091;28;20465;-71
2022/09/19 07:18:57;;;;;;;1999.90;999.90;;;12.50;99.90;;;;;;5048717;28;20462;-71
2022/09/19 07:21:25;;;;;;;1999.90;999.90;;;12.60;99.90;;;;;;5048064;28;20954;-71
2022/09/19 07:23:52;;;;;;;1999.90;999.90;;;12.60;99.90;;;;;;5048112;28;20482;-71
2022/09/19 07:26:18;;;;;;;1999.90;999.90;;;12.50;99.90;;;;;;5044194;28;20476;-71
2022/09/19 07:28:45;;;;;;;1999.90;999.90;;;12.50;99.90;;;;;;5048152;28;20463;-71
2022/09/19 07:31:12;;;;;;;1999.90;999.90;;;12.50;99.90;;;;;;5046530;28;20950;-68
2022/09/19 07:33:40;;;;;;;1999.90;999.90;;;12.60;99.90;;;;;;5044404;28;20509;-69
2022/09/19 07:36:07;;;;;;;1999.90;999.90;;;12.70;99.90;;;;;;5047900;28;20492;-70
2022/09/19 07:38:34;;;;;;;1999.90;999.90;;;12.70;99.90;;;;;;5050292;28;20466;-70
2022/09/19 07:41:01;;;;;;;1999.90;999.90;;;12.70;99.90;;;;;;5049339;28;20470;-68
2022/09/19 07:43:28;;;;;;;1999.90;999.90;;;12.90;99.90;;;;;;5050168;28;20524;-69
2022/09/19 07:45:55;;;;;;;1999.90;999.90;;;12.90;99.90;;;;;;5049015;28;20978;-68
2022/09/19 07:48:21;;;;;;;1999.90;999.90;;;13.20;99.90;;;;;;5050760;28;20527;-69
2022/09/19 07:50:49;;;;;;;1999.90;999.90;;;13.60;99.90;;;;;;5053935;28;20462;-70
2022/09/19 07:53:18;;;;;;;1999.90;999.90;;;13.80;99.90;;;;;;5047829;28;20450;-70
2022/09/19 07:55:51;;;;;;;1999.90;999.90;;;13.90;99.90;;;;;;5048301;28;20910;-70
2022/09/19 07:58:19;;;;;;;1999.90;999.90;;;14.00;99.90;;;;;;5049076;28;20466;-69
2022/09/19 08:00:46;;;;;;;1999.90;999.90;;;14.10;99.90;;;;;;5050132;28;20512;-69
2022/09/19 08:03:15;;;;;;;1999.90;999.90;;;14.30;99.90;;;;;;5046761;28;20539;-70
2022/09/19 08:05:43;;;;;;;1999.90;999.90;;;14.40;99.90;;;;;;5049515;28;20532;-70
2022/09/19 08:08:13;;;;;;;1999.90;999.90;;;14.40;99.90;;;;;;5048555;28;20474;-70
2022/09/19 08:10:41;;;;;;;1999.90;999.90;;;14.40;99.90;;;;;;5046445;28;20459;-70
2022/09/19 08:13:09;;;;;;;1999.90;999.90;;;14.30;99.90;;;;;;5049455;28;21020;-70
2022/09/19 08:15:37;;;;;;;1999.90;999.90;;;14.40;99.90;;;;;;5043586;28;21350;-70
2022/09/19 08:18:05;;;;;;;1999.90;999.90;;;14.20;99.90;;;;;;5051577;28;20496;-70
2022/09/19 08:20:34;;;;;;;1999.90;999.90;;;14.20;99.90;;;;;;5049598;28;20462;-70
2022/09/19 08:23:02;;;;;;;1999.90;999.90;;;14.10;99.90;;;;;;5047967;28;21059;-68
2022/09/19 08:25:33;;;;;;;1999.90;999.90;;;14.00;99.90;;;;;;5048760;28;20821;-69
2022/09/19 08:28:00;;;;;;;1999.90;999.90;;;14.10;99.90;;;;;;5048831;28;20477;-69
2022/09/19 08:30:28;;;;;;;1999.90;999.90;;;14.10;99.90;;;;;;5048163;28;20462;-69
2022/09/19 08:32:56;;;;;;;1999.90;999.90;;;14.10;99.90;;;;;;5048839;28;20516;-69
2022/09/19 08:35:24;;;;;;;1999.90;999.90;;;14.10;99.90;;;;;;5047812;28;20488;-69
2022/09/19 08:37:55;;;;;;;1999.90;999.90;;;14.20;99.90;;;;;;5049405;28;20470;-69
2022/09/19 08:40:25;;;;;;;1999.90;999.90;;;14.10;99.90;;;;;;5046313;28;20508;-69
2022/09/19 08:43:02;;;;;;;1999.90;999.90;;;14.20;99.90;;;;;;5056651;28;20527;-70
2022/09/19 08:45:42;;;;;;;1999.90;999.90;;;14.30;99.90;;;;;;5040536;28;20926;-71
2022/09/19 08:48:13;;;;;;;1999.90;999.90;;;14.80;99.90;;;;;;5046454;28;20519;-69
2022/09/19 08:50:44;;;;;;;1999.90;999.90;;;15.30;99.90;;;;;;5047354;28;20545;-70
2022/09/19 08:53:18;;;;;;;1999.90;999.90;;;15.30;99.90;;;;;;5048444;28;20962;-69
2022/09/19 08:55:47;;;;;;;1999.90;999.90;;;15.20;99.90;;;;;;5050127;28;20475;-71
2022/09/19 08:58:18;;;;;;;1999.90;999.90;;;15.10;99.90;;;;;;5048169;28;21046;-71
2022/09/19 09:00:46;;;;;;;1999.90;999.90;;;15.30;99.90;;;;;;5050261;28;20458;-72
2022/09/19 09:03:16;;;;;;;1999.90;999.90;;;15.40;99.90;;;;;;5050365;28;20482;-72
2022/09/19 09:05:48;;;;;;;1999.90;999.90;;;15.70;99.90;;;;;;5051071;28;20466;-71
2022/09/19 09:08:32;;;;;;;1999.90;999.90;;;16.00;99.90;;;;;;5051425;28;20466;-71
2022/09/19 09:11:08;;;;;;;1999.90;999.90;;;16.10;99.90;;;;;;5050330;28;20466;-71
2022/09/19 09:13:48;;;;;;;1999.90;999.90;;;15.90;99.90;;;;;;5042617;28;20453;-70
2022/09/19 09:16:24;;;;;;;1999.90;999.90;;;15.30;99.90;;;;;;5047053;28;20555;-69
2022/09/19 09:19:07;;;;;;;1999.90;999.90;;;14.90;99.90;;;;;;5053646;28;20558;-69
2022/09/19 09:21:42;;;;;;;1999.90;999.90;;;14.60;99.90;;;;;;5044419;28;21233;-69
2022/09/19 09:24:14;;;;;;;1999.90;999.90;;;14.30;99.90;;;;;;5047860;28;20485;-70
2022/09/19 09:26:44;;;;;;;1999.90;999.90;;;14.00;99.90;;;;;;5052954;28;20466;-70
2022/09/19 09:29:22;;;;;;;1999.90;999.90;;;13.90;99.90;;;;;;5053433;28;20470;-69
2022/09/19 09:31:56;;;;;;;1999.90;999.90;;;14.00;99.90;;;;;;5053078;28;20492;-71
2022/09/19 09:34:28;;;;;;;1999.90;999.90;;;14.40;99.90;;;;;;5052525;28;20478;-67
2022/09/19 09:37:03;;;;;;;1999.90;999.90;;;14.70;99.90;;;;;;5051873;28;20485;-68
2022/09/19 09:39:39;;;;;;;1999.90;999.90;;;14.90;99.90;;;;;;5051439;28;20461;-70
2022/09/19 09:42:07;;;;;;;1999.90;999.90;;;14.90;99.90;;;;;;5051720;28;20457;-70
2022/09/19 09:44:51;;;;;;;1999.90;999.90;;;14.60;99.90;;;;;;5050062;28;20497;-70
2022/09/19 09:47:39;;;;;;;1999.90;999.90;;;14.60;99.90;;;;;;5050112;28;20458;-69
2022/09/19 09:50:25;;;;;;;1999.90;999.90;;;14.70;99.90;;;;;;5048590;28;20462;-69
2022/09/19 09:53:01;;;;;;;1999.90;999.90;;;14.70;99.90;;;;;;5054288;28;20431;-69
2022/09/19 09:58:29;;;;;;;1999.90;999.90;;;14.80;99.90;;;;;;5054077;28;20556;-70
2022/09/19 10:04:03;;;;;;;1999.90;999.90;;;14.90;99.90;;;;;;5051928;28;20473;-71
2022/09/19 10:06:34;;;;;;;1999.90;999.90;;;14.70;99.90;;;;;;5045207;28;20454;-70
2022/09/19 10:09:05;;;;;;;1999.90;999.90;;;14.50;99.90;;;;;;5051756;28;20450;-67
2022/09/19 10:11:38;;;;;;;1999.90;999.90;;;14.40;99.90;;;;;;5051347;28;20512;-70
2022/09/19 10:14:08;;;;;;;1999.90;999.90;;;14.70;99.90;;;;;;5052071;28;20496;-70
2022/09/19 10:16:37;;;;;;;1999.90;999.90;;;15.20;99.90;;;;;;5051051;28;20462;-70
2022/09/19 10:19:12;;;;;;;1999.90;999.90;;;15.40;99.90;;;;;;5046366;28;20549;-69
2022/09/19 10:21:40;;;;;;;1999.90;999.90;;;15.50;99.90;;;;;;5050629;28;20469;-70
2022/09/19 10:26:41;;;;;;;1999.90;999.90;;;15.30;99.90;;;;;;5104346;22;20596;-70
2022/09/19 10:29:14;;;;;;;1999.90;999.90;;;15.40;99.90;;;;;;5086641;28;20597;-73
2022/09/19 10:31:47;;;;;;;1999.90;999.90;;;15.30;99.90;;;;;;5089425;28;20461;-72
2022/09/19 10:34:26;;;;;;;1999.90;999.90;;;15.50;99.90;;;;;;5090017;28;20460;-73
2022/09/19 10:36:53;;;;;;;1999.90;999.90;;;15.70;99.90;;;;;;5069203;28;20453;-74
2022/09/19 10:39:23;;;;;;;1999.90;999.90;;;15.70;99.90;;;;;;5068701;28;20897;-73
2022/09/19 10:41:50;;;;;;;1999.90;999.90;;;16.00;99.90;;;;;;5067846;28;20811;-73
2022/09/19 10:44:21;;;;;;;1999.90;999.90;;;16.10;99.90;;;;;;5068706;28;20488;-71
2022/09/19 10:46:54;;;;;;;1999.90;999.90;;;16.20;99.90;;;;;;5069918;28;20547;-71
2022/09/19 10:49:24;;;;;;;1999.90;999.90;;;16.70;99.90;;;;;;5066055;28;20457;-72
2022/09/19 10:51:52;;;;;;;1999.90;999.90;;;17.00;99.90;;;;;;5068274;28;20526;-72
2022/09/19 10:54:32;;;;;;;1999.90;999.90;;;17.10;99.90;;;;;;5068868;28;20457;-71
2022/09/19 10:57:00;;;;;;;1999.90;999.90;;;17.30;99.90;;;;;;5068817;28;20457;-72
2022/09/19 10:59:36;;;;;;;1999.90;999.90;;;17.50;99.90;;;;;;5066987;28;20453;-72
2022/09/19 11:02:18;;;;;;;1999.90;999.90;;;17.50;99.90;;;;;;5069090;28;20877;-71
2022/09/19 11:04:56;;;;;;;1999.90;999.90;;;17.00;99.90;;;;;;5067494;28;20496;-73
2022/09/19 11:07:26;;;;;;;1999.90;999.90;;;16.50;99.90;;;;;;5067540;28;20462;-73
2022/09/19 11:09:58;;;;;;;1999.90;999.90;;;16.20;99.90;;;;;;5068652;28;20844;-74
2022/09/19 11:12:25;;;;;;;1999.90;999.90;;;15.90;99.90;;;;;;5067626;28;21223;-74
2022/09/19 11:14:55;;;;;;;1999.90;999.90;;;15.70;99.90;;;;;;5068047;28;20527;-73
2022/09/19 11:18:01;;;;;;;1999.90;999.90;;;15.70;99.90;;;;;;5068530;28;20544;-73
2022/09/19 11:20:49;;;;;;;1999.90;999.90;;;16.00;99.90;;;;;;5045769;28;20464;-74
2022/09/19 11:23:35;;;;;;;1999.90;999.90;;;16.50;99.90;;;;;;5067341;28;20495;-75
2022/09/19 11:26:12;;;;;;;1999.90;999.90;;;16.90;99.90;;;;;;5067324;28;20499;-73
2022/09/19 11:28:52;;;;;;;1999.90;999.90;;;17.50;99.90;;;;;;5065939;28;20457;-73
2022/09/19 11:31:33;;;;;;;1999.90;999.90;;;17.80;99.90;;;;;;5065126;28;20511;-74
2022/09/19 11:34:09;;;;;;;1999.90;999.90;;;17.90;99.90;;;;;;5067766;28;21035;-73
2022/09/19 11:36:47;;;;;;;1999.90;999.90;;;17.50;99.90;;;;;;5064558;28;20504;-74
2022/09/19 11:39:20;;;;;;;1999.90;999.90;;;17.40;99.90;;;;;;5068203;28;20519;-75
2022/09/19 11:42:02;;;;;;;1999.90;999.90;;;17.40;99.90;;;;;;5068785;28;20457;-72
2022/09/19 11:44:46;;;;;;;1999.90;999.90;;;17.40;99.90;;;;;;5069270;28;20534;-74
2022/09/19 11:47:32;;;;;;;1999.90;999.90;;;17.10;99.90;;;;;;5070093;28;20464;-75
2022/09/19 11:50:25;;;;;;;1999.90;999.90;;;17.00;99.90;;;;;;5068468;28;20453;-73
2022/09/19 11:53:10;;;;;;;1999.90;999.90;;;17.30;99.90;;;;;;5066867;28;20533;-74
2022/09/19 11:55:46;;;;;;;1999.90;999.90;;;17.50;99.90;;;;;;5067178;28;20476;-75
2022/09/19 11:58:22;;;;;;;1999.90;999.90;;;17.70;99.90;;;;;;5072241;28;20429;-75
2022/09/19 12:00:59;;;;;;;1999.90;999.90;;;17.80;99.90;;;;;;5072246;28;20465;-76
2022/09/19 12:03:46;;;;;;;1999.90;999.90;;;18.10;99.90;;;;;;5070387;28;20542;-75
2022/09/19 12:06:28;;;;;;;1999.90;999.90;;;18.00;99.90;;;;;;5071364;28;20474;-75
2022/09/19 12:09:17;;;;;;;1999.90;999.90;;;18.10;99.90;;;;;;5071769;28;20457;-75
2022/09/19 12:11:49;;;;;;;1999.90;999.90;;;18.20;99.90;;;;;;5071963;28;20434;-75
2022/09/19 12:14:21;;;;;;;1999.90;999.90;;;18.20;99.90;;;;;;5071908;28;20451;-75
2022/09/19 12:16:52;;;;;;;1999.90;999.90;;;18.00;99.90;;;;;;5070621;28;20819;-75
2022/09/19 12:19:23;;;;;;;1999.90;999.90;;;18.10;99.90;;;;;;5070688;28;20499;-75
2022/09/19 12:21:54;;;;;;;1999.90;999.90;;;18.00;99.90;;;;;;5070534;28;20969;-76
2022/09/19 12:27:13;;;;;;;1999.90;999.90;;;17.80;99.90;;;;;;5071442;28;20425;-75
2022/09/19 12:29:46;;;;;;;1999.90;999.90;;;17.90;99.90;;;;;;5071647;28;20444;-74
2022/09/19 12:32:17;;;;;;;1999.90;999.90;;;18.00;99.90;;;;;;5071628;28;20452;-74
2022/09/19 12:34:53;;;;;;;1999.90;999.90;;;18.10;99.90;;;;;;5070280;28;20469;-75
2022/09/19 12:37:36;;;;;;;1999.90;999.90;;;18.30;99.90;;;;;;5071950;28;20562;-75